Time;durP1;ratioP1;P1;durP2;ratioP2;P2;SDS_P1;SDS_P2;PMS_P1;PMS_P2;Temp;Humidity;BMP_temperature;BMP_pressure;BME280_temperature;BME280_humidity;BME280_pressure;Samples;Min_cycle;Max_cycle;Signal;HPM_P1;HPM_P2
2023/03/30 00:00:17;;;;;;;2.80;0.98;;;19.60;63.60;;;;;;4990642;28;20054;-73
2023/03/30 00:02:45;;;;;;;2.15;1.00;;;19.60;63.60;;;;;;4990726;28;20057;-73
2023/03/30 00:05:12;;;;;;;1.38;0.38;;;19.60;63.70;;;;;;4990639;28;20062;-73
2023/03/30 00:07:41;;;;;;;1.65;0.93;;;19.60;63.70;;;;;;4974319;28;20432;-74
2023/03/30 00:10:09;;;;;;;1.85;0.40;;;19.60;63.70;;;;;;4973035;28;20129;-73
2023/03/30 00:12:37;;;;;;;1.30;0.30;;;19.50;63.70;;;;;;4992108;28;20050;-74
2023/03/30 00:15:08;;;;;;;1.20;0.20;;;19.50;63.70;;;;;;4992328;28;20043;-73
2023/03/30 00:17:35;;;;;;;1.67;0.90;;;19.50;63.70;;;;;;4990354;28;20487;-73
2023/03/30 00:20:07;;;;;;;1.33;0.57;;;19.50;63.70;;;;;;4992174;28;20061;-73
2023/03/30 00:22:35;;;;;;;1.40;0.20;;;19.50;63.70;;;;;;4991562;28;20053;-72
2023/03/30 00:25:02;;;;;;;1.85;0.73;;;19.50;63.70;;;;;;4982800;28;20058;-73
2023/03/30 00:27:29;;;;;;;1.13;0.28;;;19.50;63.80;;;;;;4989894;28;20050;-73
2023/03/30 00:29:56;;;;;;;1.80;0.77;;;19.50;63.80;;;;;;4990380;28;20058;-73
2023/03/30 00:32:24;;;;;;;1.10;0.75;;;19.50;63.80;;;;;;4990090;28;20057;-73
2023/03/30 00:34:51;;;;;;;2.08;1.05;;;19.40;63.80;;;;;;4990437;28;20054;-73
2023/03/30 00:37:18;;;;;;;2.75;0.47;;;19.40;63.70;;;;;;4991029;28;20054;-73
2023/03/30 00:39:45;;;;;;;2.15;0.93;;;19.40;63.80;;;;;;4990398;28;20042;-74
2023/03/30 00:42:16;;;;;;;1.67;1.27;;;19.40;63.90;;;;;;4991422;28;20050;-73
2023/03/30 00:45:10;;;;;;;1.50;0.85;;;19.40;63.80;;;;;;4990140;28;20090;-72
2023/03/30 00:47:41;;;;;;;1.70;0.40;;;19.40;63.90;;;;;;4990028;28;20486;-73
2023/03/30 00:50:10;;;;;;;1.90;1.17;;;19.40;63.90;;;;;;4991143;28;20153;-72
2023/03/30 00:52:38;;;;;;;1.30;0.90;;;19.40;63.90;;;;;;4991430;28;20046;-73
2023/03/30 00:55:07;;;;;;;1.50;0.38;;;19.40;63.80;;;;;;4990066;28;20499;-73
2023/03/30 00:57:37;;;;;;;1.02;0.20;;;19.40;63.80;;;;;;4989571;28;20483;-73
2023/03/30 01:00:07;;;;;;;0.98;0.35;;;19.40;63.70;;;;;;4986973;28;20054;-73
2023/03/30 01:02:38;;;;;;;1.58;1.05;;;19.40;63.70;;;;;;4989806;28;20054;-74
2023/03/30 01:05:09;;;;;;;1.73;0.82;;;19.50;63.60;;;;;;4980898;28;20058;-73
2023/03/30 01:07:38;;;;;;;1.75;0.95;;;19.60;63.60;;;;;;4990642;28;20053;-73
2023/03/30 01:10:08;;;;;;;1.48;0.90;;;19.60;63.50;;;;;;4988595;28;20500;-73
2023/03/30 01:12:35;;;;;;;1.20;0.20;;;19.60;63.40;;;;;;4990663;28;20042;-73
2023/03/30 01:15:02;;;;;;;1.73;1.00;;;19.70;63.30;;;;;;4989075;28;20042;-73
2023/03/30 01:17:36;;;;;;;1.75;1.10;;;19.80;63.30;;;;;;4989841;28;20096;-73
2023/03/30 01:20:48;;;;;;;2.45;1.27;;;19.80;63.10;;;;;;4989051;28;20090;-74
2023/03/30 01:23:45;;;;;;;1.98;0.82;;;19.90;63.10;;;;;;4991722;28;20499;-74
2023/03/30 01:26:45;;;;;;;1.45;0.93;;;20.00;63.00;;;;;;4988725;28;20063;-73
2023/03/30 01:29:19;;;;;;;1.42;0.28;;;20.10;62.80;;;;;;4988378;28;20058;-74
2023/03/30 01:32:05;;;;;;;1.15;0.20;;;20.20;62.70;;;;;;4987702;28;20054;-73
2023/03/30 01:34:46;;;;;;;1.88;0.80;;;20.20;62.70;;;;;;4988781;28;20043;-74
2023/03/30 01:37:44;;;;;;;1.50;0.70;;;20.30;62.70;;;;;;4985643;28;20077;-73
2023/03/30 01:40:15;;;;;;;2.13;0.95;;;20.30;62.70;;;;;;4987253;28;20053;-74
2023/03/30 01:42:52;;;;;;;1.52;0.77;;;20.20;62.60;;;;;;4989814;28;20560;-73
2023/03/30 01:45:27;;;;;;;1.27;0.98;;;20.30;62.60;;;;;;4990160;28;20065;-73
2023/03/30 01:47:58;;;;;;;1.63;0.98;;;20.30;62.70;;;;;;4987358;28;20062;-74
2023/03/30 01:50:28;;;;;;;2.03;1.00;;;20.30;62.70;;;;;;4969493;28;20051;-73
2023/03/30 01:53:01;;;;;;;1.67;1.00;;;20.20;62.70;;;;;;4970984;28;20063;-73
2023/03/30 01:55:34;;;;;;;1.48;0.80;;;20.20;62.70;;;;;;4973444;28;20050;-73
2023/03/30 01:58:07;;;;;;;1.40;0.90;;;20.20;62.80;;;;;;4990153;28;20050;-73
2023/03/30 02:00:37;;;;;;;1.48;0.93;;;20.20;62.80;;;;;;4990175;28;20047;-74
2023/03/30 02:03:08;;;;;;;1.55;0.95;;;20.20;62.90;;;;;;4989740;28;20488;-74
2023/03/30 02:05:36;;;;;;;2.15;0.98;;;20.10;62.90;;;;;;4987815;28;20120;-74
2023/03/30 02:08:08;;;;;;;1.85;1.00;;;20.10;62.90;;;;;;4989643;28;20050;-74
2023/03/30 02:10:37;;;;;;;0.95;0.50;;;20.10;63.00;;;;;;4988546;28;20058;-74
2023/03/30 02:13:05;;;;;;;;;;;20.10;63.00;;;;;;4990409;28;20055;-74
2023/03/30 02:15:35;;;;;;;1.60;1.13;;;20.00;63.00;;;;;;4989822;28;19926;-73
2023/03/30 02:18:03;;;;;;;0.93;0.20;;;20.00;63.00;;;;;;4989036;28;20054;-74
2023/03/30 02:20:31;;;;;;;1.67;0.77;;;20.00;63.10;;;;;;4988745;28;20105;-74
2023/03/30 02:22:59;;;;;;;1.40;0.82;;;20.00;63.20;;;;;;4978180;28;20156;-73
2023/03/30 02:25:26;;;;;;;1.27;0.75;;;19.90;63.10;;;;;;4968894;28;20062;-74
2023/03/30 02:27:55;;;;;;;1.50;0.93;;;19.90;63.70;;;;;;4970536;28;20465;-73
2023/03/30 02:30:22;;;;;;;1.05;0.50;;;19.90;63.30;;;;;;4970538;28;20425;-73
2023/03/30 02:32:53;;;;;;;1.35;0.75;;;19.90;63.30;;;;;;4968900;28;20063;-73
2023/03/30 02:35:31;;;;;;;1.15;0.20;;;19.80;63.30;;;;;;4969289;28;20051;-74
2023/03/30 02:38:13;;;;;;;1.80;0.90;;;19.80;63.40;;;;;;4986984;28;20065;-73
2023/03/30 02:40:45;;;;;;;;;;;19.80;63.40;;;;;;4993460;28;20055;-74
2023/03/30 02:43:32;;;;;;;1.73;0.75;;;19.70;63.30;;;;;;4993468;28;20390;-74
2023/03/30 02:46:13;;;;;;;1.38;0.75;;;19.80;63.40;;;;;;4991992;28;20056;-73
2023/03/30 02:48:48;;;;;;;0.60;0.10;;;19.70;63.40;;;;;;4992867;28;20499;-74
2023/03/30 02:51:27;;;;;;;2.33;1.27;;;19.70;63.50;;;;;;4992910;28;20049;-73
2023/03/30 02:54:00;;;;;;;1.02;0.20;;;19.70;63.50;;;;;;4991896;28;20491;-73
2023/03/30 02:56:36;;;;;;;1.90;0.82;;;19.70;63.60;;;;;;4991414;28;20050;-74
2023/03/30 02:59:09;;;;;;;2.13;1.45;;;19.70;63.60;;;;;;4991660;28;20137;-73
2023/03/30 03:01:41;;;;;;;2.25;1.00;;;19.60;63.60;;;;;;4993315;28;20495;-73
2023/03/30 03:04:10;;;;;;;1.02;0.22;;;19.60;63.60;;;;;;4993283;28;20062;-73
2023/03/30 03:06:38;;;;;;;2.15;0.80;;;19.60;63.70;;;;;;4993406;28;20042;-73
2023/03/30 03:09:05;;;;;;;1.70;1.38;;;19.60;63.70;;;;;;4978092;28;20502;-73
2023/03/30 03:11:32;;;;;;;1.48;1.05;;;19.60;63.70;;;;;;4985049;28;20430;-73
2023/03/30 03:13:59;;;;;;;1.38;1.17;;;19.50;63.60;;;;;;4992851;28;20047;-73
2023/03/30 03:16:28;;;;;;;1.73;0.77;;;19.50;63.70;;;;;;4991736;28;20487;-73
2023/03/30 03:18:54;;;;;;;1.20;0.90;;;19.50;64.30;;;;;;4991528;28;20059;-73
2023/03/30 03:21:22;;;;;;;0.80;0.10;;;19.50;63.70;;;;;;4991639;28;20057;-73
2023/03/30 03:23:48;;;;;;;1.33;0.70;;;19.50;63.70;;;;;;4992876;28;20050;-73
2023/03/30 03:26:15;;;;;;;1.25;0.68;;;19.50;63.70;;;;;;4991334;28;20462;-74
2023/03/30 03:28:43;;;;;;;1.70;1.20;;;19.50;63.70;;;;;;4991122;28;20054;-74
2023/03/30 03:31:11;;;;;;;1.50;0.90;;;19.50;63.80;;;;;;4980450;28;20117;-73
2023/03/30 03:33:39;;;;;;;1.30;0.80;;;19.40;63.70;;;;;;4971900;28;20054;-73
2023/03/30 03:36:07;;;;;;;1.70;0.85;;;19.40;63.70;;;;;;4972111;28;20097;-73
2023/03/30 03:38:35;;;;;;;1.55;0.80;;;19.40;63.80;;;;;;4987924;28;20055;-73
2023/03/30 03:41:02;;;;;;;1.88;0.93;;;19.40;63.80;;;;;;4972938;28;20135;-74
2023/03/30 03:43:29;;;;;;;1.27;0.75;;;19.40;63.80;;;;;;4982575;28;20483;-74
2023/03/30 03:45:57;;;;;;;1.40;1.27;;;19.40;63.80;;;;;;4987532;28;20050;-73
2023/03/30 03:48:24;;;;;;;1.27;0.30;;;19.40;63.80;;;;;;4977681;28;20082;-74
2023/03/30 03:50:54;;;;;;;2.30;1.33;;;19.40;63.90;;;;;;4979330;28;20058;-73
2023/03/30 03:53:22;;;;;;;1.60;0.95;;;19.30;63.80;;;;;;4991625;28;20053;-74
2023/03/30 03:55:49;;;;;;;1.67;0.80;;;19.40;63.80;;;;;;4992059;28;20050;-73
2023/03/30 03:58:16;;;;;;;1.83;0.70;;;19.40;63.80;;;;;;4991483;28;20065;-73
2023/03/30 04:00:43;;;;;;;1.63;0.80;;;19.50;63.70;;;;;;4991860;28;20519;-73
2023/03/30 04:03:11;;;;;;;1.20;0.30;;;19.50;64.30;;;;;;4973018;28;20046;-73
2023/03/30 04:05:38;;;;;;;1.50;0.98;;;19.50;63.60;;;;;;4978534;28;20050;-73
2023/03/30 04:08:09;;;;;;;1.60;0.90;;;19.60;63.60;;;;;;4991715;28;20411;-73
2023/03/30 04:10:37;;;;;;;1.73;1.00;;;19.70;63.50;;;;;;4990583;28;20058;-74
2023/03/30 04:13:04;;;;;;;1.45;0.93;;;19.70;63.40;;;;;;4991912;28;20093;-74
2023/03/30 04:15:31;;;;;;;1.60;1.10;;;19.80;63.40;;;;;;4990829;28;20105;-73
2023/03/30 04:17:58;;;;;;;1.30;0.80;;;19.80;63.20;;;;;;4990345;28;20065;-73
2023/03/30 04:20:26;;;;;;;1.30;0.70;;;19.80;63.10;;;;;;4990767;28;20403;-73
2023/03/30 04:22:53;;;;;;;1.27;0.85;;;20.00;63.10;;;;;;4989846;28;20092;-73
2023/03/30 04:25:24;;;;;;;1.80;0.25;;;20.00;63.00;;;;;;4991605;28;20499;-73
2023/03/30 04:27:52;;;;;;;1.77;0.88;;;20.10;62.90;;;;;;4972359;28;20456;-73
2023/03/30 04:30:21;;;;;;;1.75;0.90;;;20.20;62.80;;;;;;4972265;28;20059;-73
2023/03/30 04:32:53;;;;;;;0.95;0.30;;;20.20;62.70;;;;;;4971795;28;20097;-74
2023/03/30 04:35:20;;;;;;;1.50;0.75;;;20.30;62.70;;;;;;4970834;28;20046;-73
2023/03/30 04:37:51;;;;;;;1.77;0.90;;;20.30;62.70;;;;;;4971938;28;20147;-73
2023/03/30 04:40:18;;;;;;;1.30;0.63;;;20.30;62.70;;;;;;4991592;28;20113;-74
2023/03/30 04:42:48;;;;;;;2.15;1.00;;;20.30;62.60;;;;;;4989744;28;20054;-74
2023/03/30 04:45:17;;;;;;;1.42;0.22;;;20.30;62.70;;;;;;4990089;28;20129;-73
2023/03/30 04:47:44;;;;;;;1.20;0.80;;;20.30;62.70;;;;;;4991337;28;20051;-73
2023/03/30 04:50:11;;;;;;;2.05;0.90;;;20.30;63.30;;;;;;4990921;28;20137;-73
2023/03/30 04:52:38;;;;;;;1.80;0.95;;;20.30;62.80;;;;;;4989609;28;20050;-73
2023/03/30 04:55:07;;;;;;;2.10;0.30;;;20.20;62.70;;;;;;4986034;28;20055;-73
2023/03/30 04:57:34;;;;;;;1.45;0.77;;;20.20;62.80;;;;;;4977696;28;20419;-73
2023/03/30 05:00:05;;;;;;;2.30;0.38;;;20.20;62.80;;;;;;4989427;28;20554;-73
2023/03/30 05:02:32;;;;;;;1.60;1.02;;;20.20;62.90;;;;;;4989274;28;20053;-74
2023/03/30 05:04:59;;;;;;;1.35;1.02;;;20.20;63.60;;;;;;4978256;28;20062;-74
2023/03/30 05:07:26;;;;;;;1.50;0.80;;;20.10;63.00;;;;;;4985231;28;20054;-73
2023/03/30 05:09:53;;;;;;;1.50;0.88;;;20.10;63.00;;;;;;4990799;28;20058;-73
2023/03/30 05:12:21;;;;;;;1.40;0.90;;;20.10;63.60;;;;;;4988180;28;20427;-73
2023/03/30 05:14:48;;;;;;;1.70;1.05;;;20.10;63.70;;;;;;4971461;28;20109;-72
2023/03/30 05:17:16;;;;;;;1.50;0.80;;;20.10;63.10;;;;;;4975771;28;20061;-73
2023/03/30 05:19:43;;;;;;;1.77;0.85;;;20.00;63.20;;;;;;4990689;28;20057;-73
2023/03/30 05:22:10;;;;;;;1.20;0.20;;;20.00;63.20;;;;;;4989506;28;20104;-74
2023/03/30 05:24:37;;;;;;;1.20;0.80;;;20.00;63.80;;;;;;4990112;28;20046;-74
2023/03/30 05:27:05;;;;;;;1.00;0.20;;;19.90;63.30;;;;;;4970059;28;20057;-73
2023/03/30 05:29:32;;;;;;;2.13;1.02;;;19.90;63.30;;;;;;4978100;28;20053;-73
2023/03/30 05:31:59;;;;;;;1.33;0.77;;;19.90;63.30;;;;;;4990177;28;20046;-73
2023/03/30 05:34:27;;;;;;;1.45;0.90;;;19.90;63.40;;;;;;4989137;28;20057;-73
2023/03/30 05:36:54;;;;;;;1.95;0.70;;;19.90;63.50;;;;;;4990403;28;20050;-73
2023/03/30 05:39:22;;;;;;;2.45;0.25;;;19.80;63.40;;;;;;4988788;28;20069;-73
2023/03/30 05:41:49;;;;;;;1.25;0.45;;;19.80;63.50;;;;;;4989144;28;20054;-73
2023/03/30 05:44:17;;;;;;;2.70;1.00;;;19.80;63.50;;;;;;4990403;28;20046;-73
2023/03/30 05:46:44;;;;;;;1.10;0.20;;;19.80;63.70;;;;;;4988676;28;20082;-72
2023/03/30 05:49:11;;;;;;;1.20;0.90;;;19.80;63.60;;;;;;4990462;28;20415;-73
2023/03/30 05:51:39;;;;;;;1.92;0.82;;;19.70;63.60;;;;;;4989004;28;20057;-73
2023/03/30 05:54:06;;;;;;;2.08;0.82;;;19.70;63.60;;;;;;4989869;28;20104;-73
2023/03/30 05:56:33;;;;;;;2.00;0.77;;;19.70;63.60;;;;;;4988335;28;20082;-73
2023/03/30 05:59:00;;;;;;;1.95;0.35;;;19.70;63.70;;;;;;4988513;28;20053;-72
2023/03/30 06:01:27;;;;;;;1.40;0.80;;;19.70;63.70;;;;;;4984063;28;20058;-73
2023/03/30 06:03:54;;;;;;;1.80;0.30;;;19.70;63.70;;;;;;4983636;28;20093;-72
2023/03/30 06:06:21;;;;;;;0.90;0.28;;;19.70;63.80;;;;;;4987581;28;20475;-74
2023/03/30 06:08:50;;;;;;;1.48;0.60;;;19.60;63.70;;;;;;4985240;28;20058;-75
2023/03/30 06:11:17;;;;;;;3.97;1.10;;;19.60;63.80;;;;;;4974585;28;20162;-76
2023/03/30 06:13:43;;;;;;;1.73;0.93;;;19.60;63.90;;;;;;4988528;28;20053;-75
2023/03/30 06:16:10;;;;;;;2.45;0.85;;;19.60;64.00;;;;;;4996439;28;20085;-75
2023/03/30 06:18:38;;;;;;;2.75;0.90;;;19.60;64.00;;;;;;4996249;28;20054;-77
2023/03/30 06:21:06;;;;;;;1.70;1.10;;;19.60;64.00;;;;;;4995332;28;20487;-77
2023/03/30 06:23:33;;;;;;;2.40;0.30;;;19.60;64.00;;;;;;4993431;28;20136;-71
2023/03/30 06:26:02;;;;;;;1.27;0.80;;;19.60;64.10;;;;;;4995427;28;20525;-71
2023/03/30 06:28:29;;;;;;;2.33;0.82;;;19.50;64.10;;;;;;4996041;28;20051;-72
2023/03/30 06:30:56;;;;;;;4.75;1.17;;;19.60;64.20;;;;;;4995580;28;20494;-71
2023/03/30 06:33:24;;;;;;;1.75;0.80;;;19.60;64.20;;;;;;4995042;28;20058;-72
2023/03/30 06:35:53;;;;;;;2.05;0.35;;;19.50;64.20;;;;;;4995916;28;20056;-72
2023/03/30 06:38:21;;;;;;;3.50;0.30;;;19.50;64.20;;;;;;4994023;28;20499;-72
2023/03/30 06:40:49;;;;;;;1.27;0.70;;;19.50;64.20;;;;;;4994991;28;20061;-71
2023/03/30 06:43:20;;;;;;;1.40;0.20;;;19.50;64.20;;;;;;4995295;28;20090;-72
2023/03/30 06:45:51;;;;;;;1.17;0.32;;;19.50;64.20;;;;;;4994827;28;20133;-72
2023/03/30 06:48:19;;;;;;;1.52;0.82;;;19.50;64.30;;;;;;4995938;28;20050;-71
2023/03/30 06:50:47;;;;;;;1.73;1.00;;;19.50;64.20;;;;;;4996030;28;20086;-72
2023/03/30 06:53:15;;;;;;;1.58;0.95;;;19.40;64.20;;;;;;4994625;28;20054;-71
2023/03/30 06:55:41;;;;;;;1.60;0.82;;;19.40;64.20;;;;;;4979459;28;20051;-72
2023/03/30 06:58:09;;;;;;;1.52;0.85;;;19.50;64.30;;;;;;4976470;28;20058;-72
2023/03/30 07:00:37;;;;;;;1.73;0.68;;;19.40;64.30;;;;;;4976913;28;20133;-72
2023/03/30 07:03:05;;;;;;;1.67;0.95;;;19.50;64.30;;;;;;4987609;28;20054;-71
2023/03/30 07:05:32;;;;;;;2.03;0.85;;;19.40;64.30;;;;;;4978710;28;20126;-71
2023/03/30 07:07:59;;;;;;;1.30;0.90;;;19.50;64.30;;;;;;4977159;28;20495;-72
2023/03/30 07:10:27;;;;;;;1.88;0.85;;;19.40;64.30;;;;;;4975119;28;20054;-71
2023/03/30 07:12:54;;;;;;;1.67;1.10;;;19.40;64.30;;;;;;4995093;28;20050;-71
2023/03/30 07:15:21;;;;;;;2.20;1.17;;;19.40;64.30;;;;;;4995872;28;20487;-72
2023/03/30 07:17:52;;;;;;;2.08;0.98;;;19.40;64.90;;;;;;4994781;28;20046;-71
2023/03/30 07:20:19;;;;;;;1.77;0.30;;;19.40;64.30;;;;;;4994365;28;20085;-71
2023/03/30 07:22:46;;;;;;;2.33;0.90;;;19.40;64.30;;;;;;4993014;28;20054;-72
2023/03/30 07:25:13;;;;;;;1.80;0.47;;;19.40;64.30;;;;;;4992738;28;20081;-72
2023/03/30 07:27:40;;;;;;;1.42;0.75;;;19.40;64.40;;;;;;4992186;28;20081;-72
2023/03/30 07:30:09;;;;;;;1.73;0.80;;;19.40;64.40;;;;;;4971761;28;20066;-71
2023/03/30 07:32:36;;;;;;;2.35;1.02;;;19.40;64.50;;;;;;4972028;28;20062;-72
2023/03/30 07:35:05;;;;;;;1.85;1.08;;;19.40;64.40;;;;;;4973316;28;20469;-72
2023/03/30 07:37:32;;;;;;;1.30;0.85;;;19.40;64.50;;;;;;4972853;28;20058;-72
2023/03/30 07:39:59;;;;;;;3.28;0.25;;;19.40;64.40;;;;;;4972038;28;20055;-72
2023/03/30 07:42:26;;;;;;;2.17;0.32;;;19.50;64.40;;;;;;4971773;28;20055;-72
2023/03/30 07:44:53;;;;;;;2.33;1.08;;;19.50;64.40;;;;;;4972392;28;20050;-71
2023/03/30 07:47:20;;;;;;;1.98;1.00;;;19.50;64.30;;;;;;4977859;28;20046;-72
2023/03/30 07:49:47;;;;;;;2.22;1.17;;;19.60;64.30;;;;;;4992124;28;20058;-72
2023/03/30 07:52:15;;;;;;;1.88;0.93;;;19.70;64.20;;;;;;4992666;28;20046;-72
2023/03/30 07:54:43;;;;;;;1.77;0.35;;;19.70;64.10;;;;;;5006621;28;20066;-72
2023/03/30 07:57:10;;;;;;;1.80;0.22;;;19.80;64.00;;;;;;4992065;28;20137;-72
2023/03/30 07:59:38;;;;;;;1.60;0.60;;;19.80;64.00;;;;;;4992140;28;20065;-72
2023/03/30 08:02:05;;;;;;;2.03;0.90;;;19.80;63.80;;;;;;4999748;28;20046;-71
2023/03/30 08:04:32;;;;;;;1.90;1.10;;;20.00;64.40;;;;;;4998232;28;20052;-72
2023/03/30 08:07:00;;;;;;;2.33;1.02;;;20.00;63.70;;;;;;5009030;28;20042;-72
2023/03/30 08:09:29;;;;;;;1.55;0.88;;;20.10;63.60;;;;;;5011269;28;20376;-72
2023/03/30 08:11:56;;;;;;;1.42;1.08;;;20.10;63.50;;;;;;5009959;28;20054;-72
2023/03/30 08:14:26;;;;;;;1.30;0.70;;;20.20;63.40;;;;;;5011344;28;20085;-72
2023/03/30 08:16:53;;;;;;;1.27;0.20;;;20.20;63.30;;;;;;5011404;28;20057;-72
2023/03/30 08:19:19;;;;;;;1.27;0.77;;;20.20;63.40;;;;;;4997997;28;20058;-72
2023/03/30 08:21:47;;;;;;;2.15;0.82;;;20.30;63.40;;;;;;4972211;28;20102;-71
2023/03/30 08:24:13;;;;;;;2.42;0.90;;;20.30;63.40;;;;;;4970818;28;20090;-72
2023/03/30 08:26:42;;;;;;;1.83;1.17;;;20.30;63.30;;;;;;4970601;28;20054;-72
2023/03/30 08:29:09;;;;;;;2.13;0.20;;;20.30;63.40;;;;;;4986900;28;20090;-72
2023/03/30 08:31:36;;;;;;;1.55;0.30;;;20.30;63.40;;;;;;4991642;28;20075;-72
2023/03/30 08:34:03;;;;;;;2.05;1.23;;;20.30;63.40;;;;;;4990300;28;20483;-71
2023/03/30 08:36:30;;;;;;;1.60;0.73;;;20.30;63.50;;;;;;4989334;28;20060;-72
2023/03/30 08:38:57;;;;;;;1.73;0.38;;;20.30;63.50;;;;;;4991093;28;20055;-72
2023/03/30 08:42:06;;;;;;;3.00;1.20;;;20.20;63.40;;;;;;4990060;28;20135;-72
2023/03/30 08:44:37;;;;;;;2.00;0.88;;;20.20;63.50;;;;;;4913380;28;20058;-72
2023/03/30 08:47:06;;;;;;;1.83;0.30;;;20.20;63.60;;;;;;4989325;28;20049;-72
2023/03/30 08:49:37;;;;;;;2.00;0.88;;;20.20;63.60;;;;;;4991241;28;20046;-71
2023/03/30 08:52:06;;;;;;;1.70;1.08;;;20.20;63.60;;;;;;4990015;28;20054;-72
2023/03/30 08:54:34;;;;;;;2.40;0.30;;;20.20;63.70;;;;;;4990236;28;20042;-72
2023/03/30 08:57:08;;;;;;;1.73;0.90;;;20.10;63.70;;;;;;4990938;28;20129;-72
2023/03/30 08:59:45;;;;;;;2.15;0.38;;;20.10;63.80;;;;;;4991160;28;20133;-71
2023/03/30 09:02:19;;;;;;;2.75;1.10;;;20.10;64.40;;;;;;4991260;28;20051;-72
2023/03/30 09:04:56;;;;;;;2.47;0.90;;;20.10;63.80;;;;;;4990868;28;20047;-72
2023/03/30 09:07:25;;;;;;;1.77;0.90;;;20.10;63.90;;;;;;4990656;28;20450;-72
2023/03/30 09:09:53;;;;;;;2.58;1.02;;;20.00;63.90;;;;;;4988570;28;20525;-72
2023/03/30 09:12:29;;;;;;;2.53;0.93;;;20.00;64.00;;;;;;4989164;28;20058;-72
2023/03/30 09:15:00;;;;;;;3.03;0.93;;;20.00;64.00;;;;;;4988238;28;20151;-72
2023/03/30 09:17:32;;;;;;;2.53;1.10;;;20.00;64.10;;;;;;4977116;28;20058;-72
2023/03/30 09:20:06;;;;;;;2.95;1.15;;;20.00;64.10;;;;;;4970085;28;20411;-72
2023/03/30 09:22:37;;;;;;;2.42;1.08;;;19.90;64.70;;;;;;4969938;28;20135;-73
2023/03/30 09:25:17;;;;;;;2.50;0.85;;;19.90;64.10;;;;;;4969931;28;20058;-72
2023/03/30 09:28:01;;;;;;;3.22;1.05;;;19.90;64.20;;;;;;4980446;28;20115;-72
2023/03/30 09:30:37;;;;;;;2.00;1.00;;;19.90;64.20;;;;;;5005110;28;20100;-72
2023/03/30 09:33:13;;;;;;;4.20;1.23;;;19.90;64.30;;;;;;4990188;28;20047;-72
2023/03/30 09:35:43;;;;;;;2.42;1.02;;;19.90;64.30;;;;;;4989070;28;20057;-72
2023/03/30 09:38:12;;;;;;;1.58;0.88;;;19.90;64.30;;;;;;4990705;28;20089;-71
2023/03/30 09:41:00;;;;;;;2.55;1.10;;;19.90;64.40;;;;;;4990493;28;20100;-72
2023/03/30 09:43:34;;;;;;;2.45;0.30;;;19.80;64.40;;;;;;4990137;28;20789;-72
2023/03/30 09:46:06;;;;;;;3.20;0.57;;;19.90;64.40;;;;;;4989128;28;20050;-71
2023/03/30 09:48:39;;;;;;;2.08;0.43;;;19.80;64.50;;;;;;4989050;28;20129;-72
2023/03/30 09:51:19;;;;;;;2.15;1.10;;;19.80;64.50;;;;;;4988996;28;20093;-72
2023/03/30 09:53:48;;;;;;;3.38;1.77;;;19.90;64.60;;;;;;4989681;28;20080;-72
2023/03/30 09:56:25;;;;;;;3.03;1.02;;;19.90;64.60;;;;;;4990366;28;20058;-73
2023/03/30 09:58:52;;;;;;;2.70;1.30;;;19.90;64.60;;;;;;4989157;28;20054;-72
2023/03/30 10:01:23;;;;;;;2.53;1.02;;;19.90;64.60;;;;;;4987131;28;20054;-73
2023/03/30 10:04:07;;;;;;;2.55;1.15;;;19.90;64.70;;;;;;4988708;28;20058;-73
2023/03/30 10:06:38;;;;;;;3.33;1.40;;;19.90;64.70;;;;;;4989711;28;20054;-72
2023/03/30 10:09:10;;;;;;;2.28;1.45;;;19.90;64.60;;;;;;4989538;28;20057;-72
2023/03/30 10:11:40;;;;;;;4.78;1.75;;;19.90;64.70;;;;;;4988601;28;20096;-72
2023/03/30 10:14:26;;;;;;;4.93;1.20;;;19.90;64.60;;;;;;4989730;28;20050;-73
2023/03/30 10:16:55;;;;;;;3.65;1.27;;;19.90;64.70;;;;;;4986315;28;20046;-73
2023/03/30 10:19:23;;;;;;;4.05;1.27;;;20.00;64.70;;;;;;4987234;28;20484;-72
2023/03/30 10:21:53;;;;;;;2.30;0.40;;;19.90;64.70;;;;;;4989528;28;20537;-71
2023/03/30 10:24:23;;;;;;;5.03;1.80;;;19.90;64.70;;;;;;4986296;28;20050;-77
2023/03/30 10:26:52;;;;;;;4.10;0.90;;;19.90;64.70;;;;;;4972019;28;20419;-78
2023/03/30 10:29:21;;;;;;;;;;;19.90;64.80;;;;;;4988604;28;20046;-77
2023/03/30 10:31:53;;;;;;;2.53;0.80;;;19.90;64.70;;;;;;4988249;28;19964;-77
2023/03/30 10:34:33;;;;;;;3.22;1.20;;;19.90;64.70;;;;;;4989595;28;20058;-77
2023/03/30 10:37:00;;;;;;;3.33;0.65;;;19.90;64.70;;;;;;4971130;28;20061;-77
2023/03/30 10:39:30;;;;;;;3.17;1.08;;;19.90;64.70;;;;;;4970119;28;20131;-76
2023/03/30 10:42:01;;;;;;;2.97;0.88;;;19.90;64.80;;;;;;4978599;28;20038;-76
2023/03/30 10:44:32;;;;;;;4.95;1.83;;;19.90;64.70;;;;;;4987748;28;20154;-76
2023/03/30 10:47:14;;;;;;;2.67;1.10;;;19.90;64.80;;;;;;4988935;28;20097;-76
2023/03/30 10:49:54;;;;;;;2.47;0.52;;;19.90;64.80;;;;;;4987849;28;20054;-76
2023/03/30 10:52:27;;;;;;;3.10;0.57;;;19.90;64.80;;;;;;4981771;28;20075;-77
2023/03/30 10:54:59;;;;;;;2.78;0.90;;;19.90;64.80;;;;;;4985964;28;20058;-77
2023/03/30 10:57:36;;;;;;;2.88;0.50;;;19.90;64.80;;;;;;4991341;28;20046;-77
2023/03/30 11:00:17;;;;;;;3.40;1.13;;;19.90;64.80;;;;;;4991903;28;20085;-77
2023/03/30 11:02:56;;;;;;;3.05;0.60;;;19.90;64.80;;;;;;4989148;28;20046;-75
2023/03/30 11:05:29;;;;;;;4.93;1.20;;;19.80;64.70;;;;;;4993170;28;20414;-76
2023/03/30 11:08:00;;;;;;;2.25;1.13;;;19.90;64.80;;;;;;4987363;28;20046;-74
2023/03/30 11:10:30;;;;;;;2.70;1.27;;;19.90;64.90;;;;;;4974231;28;20062;-78
2023/03/30 11:13:00;;;;;;;3.15;1.10;;;19.90;64.80;;;;;;4978143;28;20089;-78
2023/03/30 11:15:33;;;;;;;2.90;0.30;;;19.90;64.90;;;;;;4992979;28;20114;-81
2023/03/30 11:18:06;;;;;;;3.50;1.17;;;19.80;64.80;;;;;;4993036;28;20050;-79
2023/03/30 11:20:41;;;;;;;4.53;1.40;;;19.80;64.80;;;;;;4992505;28;20430;-71
2023/03/30 11:23:17;;;;;;;3.72;1.10;;;19.80;64.90;;;;;;4992037;28;20741;-71
2023/03/30 11:25:53;;;;;;;4.57;1.67;;;19.90;64.90;;;;;;4990381;28;20050;-78
2023/03/30 11:28:33;;;;;;;4.88;1.13;;;19.80;64.90;;;;;;4988198;28;20126;-79
2023/03/30 11:31:08;;;;;;;5.20;1.10;;;19.80;64.80;;;;;;4991634;28;20046;-83
2023/03/30 11:33:41;;;;;;;2.88;0.43;;;19.90;64.90;;;;;;4990583;28;20078;-72
2023/03/30 11:36:17;;;;;;;3.03;0.52;;;19.80;64.90;;;;;;4989629;28;20073;-72
2023/03/30 11:38:46;;;;;;;;;;;19.80;64.90;;;;;;4992064;28;20491;-72
2023/03/30 11:41:15;;;;;;;2.72;0.82;;;19.80;64.90;;;;;;4990444;28;20279;-72
2023/03/30 11:43:43;;;;;;;3.42;1.17;;;19.80;64.80;;;;;;4989736;28;20050;-72
2023/03/30 11:46:16;;;;;;;4.80;1.10;;;19.80;64.90;;;;;;4991124;28;20081;-72
2023/03/30 11:49:08;;;;;;;3.95;1.30;;;19.80;64.90;;;;;;4991086;28;20050;-73
2023/03/30 11:51:49;;;;;;;4.30;1.27;;;19.80;64.90;;;;;;4991498;28;20050;-72
2023/03/30 11:54:53;;;;;;;4.53;1.10;;;19.80;64.90;;;;;;4992034;28;20427;-72
2023/03/30 11:57:32;;;;;;;3.13;1.13;;;19.80;64.90;;;;;;4987210;28;20054;-72
2023/03/30 12:00:09;;;;;;;3.15;2.40;;;19.80;64.90;;;;;;4988883;28;20058;-72
2023/03/30 12:02:48;;;;;;;4.13;1.33;;;19.80;64.90;;;;;;4971678;28;20050;-72
2023/03/30 12:05:23;;;;;;;3.42;0.82;;;19.80;65.50;;;;;;4971646;28;20055;-72
2023/03/30 12:08:02;;;;;;;3.20;1.70;;;19.80;64.90;;;;;;4972337;28;20086;-72
2023/03/30 12:10:33;;;;;;;3.00;1.38;;;19.80;64.90;;;;;;4972537;28;20050;-72
2023/03/30 12:13:02;;;;;;;3.65;1.08;;;19.80;64.80;;;;;;4971046;28;20062;-72
2023/03/30 12:15:41;;;;;;;4.13;1.38;;;19.80;64.90;;;;;;4971993;28;20089;-72
2023/03/30 12:18:23;;;;;;;5.65;1.17;;;19.90;64.90;;;;;;4972910;28;20055;-72
2023/03/30 12:20:55;;;;;;;4.30;1.25;;;19.90;64.90;;;;;;4972297;28;20504;-73
2023/03/30 12:23:33;;;;;;;4.43;1.13;;;19.90;64.80;;;;;;4971387;28;20399;-72
2023/03/30 12:26:15;;;;;;;3.90;1.42;;;19.90;64.80;;;;;;4985217;28;20054;-72
2023/03/30 12:28:46;;;;;;;2.95;1.30;;;19.90;64.80;;;;;;4991479;28;20689;-73
2023/03/30 12:31:14;;;;;;;3.05;1.13;;;19.90;64.70;;;;;;4991535;28;20109;-72
2023/03/30 12:33:46;;;;;;;3.40;1.20;;;20.00;64.70;;;;;;4988863;28;20054;-72
2023/03/30 12:36:37;;;;;;;3.25;1.35;;;20.00;64.60;;;;;;4982388;28;20086;-72
2023/03/30 12:39:08;;;;;;;4.35;1.67;;;20.10;64.60;;;;;;4990949;28;20084;-72
2023/03/30 12:41:43;;;;;;;3.25;0.98;;;20.10;65.20;;;;;;4991192;28;20057;-72
2023/03/30 12:44:37;;;;;;;4.18;1.73;;;20.10;64.50;;;;;;4989550;28;20050;-72
2023/03/30 12:47:26;;;;;;;3.58;0.80;;;20.10;65.10;;;;;;4988858;28;20056;-72
2023/03/30 12:50:08;;;;;;;4.38;0.70;;;20.20;64.50;;;;;;4990059;28;20491;-73
2023/03/30 12:52:47;;;;;;;4.93;1.75;;;20.20;64.50;;;;;;4982197;28;20085;-72
2023/03/30 12:55:33;;;;;;;6.68;1.42;;;20.20;64.50;;;;;;4971177;28;20415;-72
2023/03/30 12:58:19;;;;;;;4.45;1.17;;;20.30;64.60;;;;;;4970321;28;20451;-73
2023/03/30 13:01:05;;;;;;;5.43;1.60;;;20.30;64.60;;;;;;4985436;28;20411;-72
2023/03/30 13:03:39;;;;;;;6.78;1.40;;;20.30;64.50;;;;;;4989953;28;20633;-72
2023/03/30 13:06:22;;;;;;;4.55;1.17;;;20.30;64.50;;;;;;4990742;28;20050;-72
2023/03/30 13:08:55;;;;;;;5.43;1.83;;;20.30;64.50;;;;;;4983623;28;20057;-73